HST,Max TemperatureF,Mean TemperatureF,Min TemperatureF,Max Dew PointF,MeanDew PointF,Min DewpointF,Max Humidity, Mean Humidity, Min Humidity, Max Sea Level PressureIn, Mean Sea Level PressureIn, Min Sea Level PressureIn, Max VisibilityMiles, Mean VisibilityMiles, Min VisibilityMiles, Max Wind SpeedMPH, Mean Wind SpeedMPH, Max Gust SpeedMPH,PrecipitationIn, CloudCover, Events, WindDirDegrees
2012-12-1,81,74,68,65,60,57,73,61,54,30.06,30.02,29.96,10,10,10,13,5,,0.00,0,,7
2012-12-2,82,76,71,71,64,56,77,62,53,30.06,29.98,29.82,10,10,10,30,5,36,0.00,1,Rain,41
2012-12-3,84,78,73,73,70,65,88,74,65,30.01,29.97,29.92,10,10,10,16,6,,0.00,5,,174
2012-12-4,81,77,73,72,70,66,84,76,69,30.03,29.99,29.96,10,10,10,8,3,,0.00,5,,301
2012-12-5,84,80,75,72,70,65,83,74,54,30.09,30.01,29.95,10,10,10,18,8,,0.00,4,,126
2012-12-6,81,77,73,70,68,65,88,75,65,30.01,29.96,29.89,10,10,10,8,4,,0.00,6,Rain,339
2012-12-7,84,78,73,68,65,63,76,65,54,29.99,29.92,29.86,10,10,10,15,6,22,0.00,1,,95
2012-12-8,82,77,72,68,63,58,74,63,52,29.96,29.91,29.85,10,10,10,14,6,,0.00,0,,186
2012-12-9,82,76,71,66,63,59,73,63,52,29.97,29.91,29.84,10,10,10,10,5,,0.00,2,Rain,200
2012-12-10,82,76,70,66,63,60,76,63,52,30.00,29.96,29.90,10,10,10,12,5,,0.00,1,,147
2012-12-11,82,77,72,66,63,59,76,62,45,30.05,29.99,29.94,10,10,10,14,7,,0.00,2,Rain,147
2012-12-12,80,75,70,65,63,57,81,65,50,30.04,30.01,29.97,10,10,10,20,7,32,0.01,5,Rain,105
2012-12-13,80,75,70,67,63,57,71,65,52,30.08,30.05,30.00,10,10,10,9,6,,0.00,3,,160
2012-12-14,81,75,69,65,62,56,70,63,57,30.09,30.05,30.01,10,10,10,10,6,,0.00,0,,153
2012-12-15,80,74,68,65,61,56,70,62,50,30.10,30.05,30.00,10,10,10,10,6,,0.00,1,,136
2012-12-16,80,74,68,65,61,56,70,62,54,30.06,30.03,29.96,10,10,10,13,6,,0.00,0,,143
2012-12-17,82,75,68,66,61,55,71,63,52,30.06,30.02,29.97,10,10,10,9,4,,0.00,0,,160
2012-12-18,82,76,71,66,62,57,71,62,47,30.05,30.01,29.95,10,10,10,14,9,,0.00,1,,207
2012-12-19,82,76,69,65,61,54,76,61,48,30.02,29.98,29.92,10,10,10,13,6,,0.00,2,,148
2012-12-20,81,75,69,66,59,51,66,57,49,29.99,29.96,29.90,10,10,10,10,6,,0.00,2,,119
2012-12-21,82,76,70,65,61,58,68,62,52,30.01,29.97,29.92,10,10,10,10,6,,0.00,3,,120
2012-12-22,81,75,69,62,59,54,68,55,46,30.04,29.99,29.92,10,10,10,10,7,,0.00,1,,118
2012-12-23,80,73,66,65,60,51,71,61,49,30.03,29.98,29.91,10,10,10,10,6,,0.00,1,,122
2012-12-24,81,74,68,66,61,53,71,61,48,30.02,29.97,29.91,10,10,10,13,5,,0.00,0,,80
2012-12-25,81,77,73,70,66,60,82,70,60,30.02,29.99,29.96,10,10,10,16,7,,0.01,5,Rain,130
2012-12-26,82,77,72,70,66,63,83,70,54,30.03,29.99,29.91,10,10,10,12,8,,0.01,2,Rain,181
2012-12-27,81,76,70,65,63,58,73,64,54,30.02,29.97,29.91,10,10,10,12,7,,0.00,2,,163
2012-12-28,81,76,70,66,62,57,71,64,48,29.99,29.95,29.90,10,10,10,10,6,,0.00,0,,12
2012-12-29,80,75,70,66,63,57,73,67,59,30.01,29.97,29.92,10,10,10,9,7,,0.00,1,,153
2012-12-30,82,75,68,68,64,57,79,68,51,30.04,29.98,29.94,10,10,10,16,7,,0.00,1,,19
2012-12-31,81,76,71,68,66,62,79,72,64,30.06,30.02,29.97,10,10,10,12,4,,0.00,3,,333